createdAt,value
2019-03-25T00:01:34.416Z,4.40
2019-03-25T00:04:02.611Z,4.30
2019-03-25T00:06:33.128Z,4.20
2019-03-25T00:09:05.662Z,4.10
2019-03-25T00:11:33.907Z,4.10
2019-03-25T00:14:02.313Z,4.00
2019-03-25T00:16:31.917Z,4.00
2019-03-25T00:18:59.733Z,3.90
2019-03-25T00:21:27.205Z,3.90
2019-03-25T00:23:54.931Z,3.80
2019-03-25T00:26:22.937Z,3.80
2019-03-25T00:28:51.323Z,3.80
2019-03-25T00:31:20.334Z,3.80
2019-03-25T00:33:48.338Z,3.70
2019-03-25T00:36:15.970Z,3.60
2019-03-25T00:38:43.931Z,3.40
2019-03-25T00:41:11.443Z,3.40
2019-03-25T00:43:40.048Z,3.30
2019-03-25T00:46:08.808Z,3.30
2019-03-25T00:48:36.626Z,3.20
2019-03-25T00:51:05.549Z,3.10
2019-03-25T00:53:34.338Z,3.10
2019-03-25T00:56:02.244Z,3.30
2019-03-25T00:58:30.600Z,3.30
2019-03-25T01:00:58.398Z,3.20
2019-03-25T01:03:27.301Z,3.10
2019-03-25T01:05:56.226Z,3.00
2019-03-25T01:08:24.011Z,3.20
2019-03-25T01:10:52.294Z,3.30
2019-03-25T01:13:20.202Z,3.30
2019-03-25T01:15:47.812Z,3.30
2019-03-25T01:18:17.387Z,3.20
2019-03-25T01:20:45.762Z,3.10
2019-03-25T01:23:13.636Z,2.90
2019-03-25T01:25:41.602Z,2.90
2019-03-25T01:28:12.383Z,3.10
2019-03-25T01:30:40.323Z,3.10
2019-03-25T01:33:08.803Z,3.20
2019-03-25T01:35:36.511Z,3.00
2019-03-25T01:38:04.006Z,3.00
2019-03-25T01:40:31.983Z,3.00
2019-03-25T01:43:00.666Z,2.90
2019-03-25T01:45:28.503Z,2.70
2019-03-25T01:47:57.891Z,2.70
2019-03-25T01:50:26.016Z,2.70
2019-03-25T01:52:53.902Z,2.70
2019-03-25T01:55:22.293Z,2.70
2019-03-25T01:57:50.506Z,2.70
2019-03-25T02:00:18.599Z,2.70
2019-03-25T02:02:46.154Z,2.70
2019-03-25T02:05:15.285Z,2.80
2019-03-25T02:07:43.076Z,2.70
2019-03-25T02:10:11.698Z,2.70
2019-03-25T02:12:40.015Z,2.60
2019-03-25T02:15:08.055Z,2.50
2019-03-25T02:17:36.132Z,2.30
2019-03-25T02:20:04.743Z,2.10
2019-03-25T02:22:33.046Z,2.10
2019-03-25T02:25:00.936Z,2.10
2019-03-25T02:27:30.273Z,2.10
2019-03-25T02:29:57.869Z,2.10
2019-03-25T02:32:25.822Z,2.20
2019-03-25T02:34:53.619Z,2.30
2019-03-25T02:37:21.544Z,2.10
2019-03-25T02:39:49.075Z,2.10
2019-03-25T02:42:19.289Z,2.10
2019-03-25T02:44:47.191Z,2.20
2019-03-25T02:47:17.032Z,2.10
2019-03-25T02:49:47.851Z,2.20
2019-03-25T02:52:16.751Z,2.20
2019-03-25T02:54:45.154Z,2.20
2019-03-25T02:57:13.861Z,2.30
2019-03-25T02:59:41.973Z,2.30
2019-03-25T03:02:10.413Z,2.30
2019-03-25T03:04:38.437Z,2.20
2019-03-25T03:07:06.784Z,2.10
2019-03-25T03:09:34.900Z,2.00
2019-03-25T03:12:03.959Z,2.10
2019-03-25T03:14:32.036Z,2.10
2019-03-25T03:17:03.315Z,2.00
2019-03-25T03:19:31.142Z,2.00
2019-03-25T03:21:59.604Z,2.00
2019-03-25T03:24:27.263Z,1.90
2019-03-25T03:26:56.968Z,1.90
2019-03-25T03:29:25.146Z,1.90
2019-03-25T03:31:52.852Z,1.90
2019-03-25T03:34:22.351Z,2.00
2019-03-25T03:36:50.400Z,2.00
2019-03-25T03:39:18.355Z,1.90
2019-03-25T03:41:46.296Z,1.90
2019-03-25T03:44:14.087Z,2.00
2019-03-25T03:46:42.329Z,1.90
2019-03-25T03:49:10.419Z,1.90
2019-03-25T03:51:38.505Z,1.90
2019-03-25T03:54:06.334Z,2.00
2019-03-25T03:56:35.227Z,2.00
2019-03-25T03:59:03.511Z,2.00
2019-03-25T04:01:31.320Z,2.00
2019-03-25T04:03:58.920Z,2.10
2019-03-25T04:06:26.893Z,2.20
2019-03-25T04:08:54.974Z,2.20
2019-03-25T04:11:22.907Z,2.20
2019-03-25T04:13:50.485Z,2.20
2019-03-25T04:16:18.568Z,2.40
2019-03-25T04:18:46.372Z,2.50
2019-03-25T04:21:14.129Z,2.60
2019-03-25T04:23:41.929Z,2.60
2019-03-25T04:26:09.380Z,2.70
2019-03-25T04:28:37.722Z,2.80
2019-03-25T04:31:05.930Z,2.90
2019-03-25T04:33:33.815Z,2.80
2019-03-25T04:36:01.836Z,2.80
2019-03-25T04:38:30.196Z,2.80
2019-03-25T04:41:01.499Z,2.80
2019-03-25T04:43:29.295Z,2.80
2019-03-25T04:46:10.311Z,2.90
2019-03-25T04:48:50.744Z,2.90
2019-03-25T04:51:30.731Z,2.80
2019-03-25T04:54:10.545Z,2.60
2019-03-25T04:56:50.559Z,2.60
2019-03-25T04:59:30.652Z,2.50
2019-03-25T05:02:11.028Z,2.50
2019-03-25T05:04:51.207Z,2.30
2019-03-25T05:07:31.116Z,2.30
2019-03-25T05:10:11.310Z,2.20
2019-03-25T05:12:51.377Z,2.20
2019-03-25T05:15:31.204Z,2.10
2019-03-25T05:18:00.319Z,2.10
2019-03-25T05:20:27.872Z,2.10
2019-03-25T05:22:56.303Z,2.10
2019-03-25T05:25:24.071Z,2.20
2019-03-25T05:27:52.303Z,2.20
2019-03-25T05:30:22.867Z,2.30
2019-03-25T05:32:50.414Z,2.40
2019-03-25T05:35:18.356Z,2.70
2019-03-25T05:37:46.168Z,2.80
2019-03-25T05:40:13.844Z,2.80
2019-03-25T05:42:41.848Z,2.80
2019-03-25T05:45:09.971Z,2.90
2019-03-25T05:47:37.931Z,3.00
2019-03-25T05:50:08.768Z,3.00
2019-03-25T05:52:35.540Z,3.00
2019-03-25T05:55:06.855Z,3.10
2019-03-25T05:57:34.611Z,3.20
2019-03-25T06:00:02.457Z,3.10
2019-03-25T06:02:30.733Z,3.20
2019-03-25T06:04:59.670Z,3.30
2019-03-25T06:07:31.390Z,3.20
2019-03-25T06:09:58.994Z,3.20
2019-03-25T06:12:29.814Z,3.20
2019-03-25T06:14:57.727Z,3.20
2019-03-25T06:17:25.953Z,3.30
2019-03-25T06:19:53.560Z,3.30
2019-03-25T06:22:21.156Z,3.20
2019-03-25T06:24:48.834Z,3.10
2019-03-25T06:27:17.354Z,3.00
2019-03-25T06:29:46.469Z,3.00
2019-03-25T06:32:14.773Z,3.10
2019-03-25T06:34:43.086Z,3.20
2019-03-25T06:37:10.789Z,3.20
2019-03-25T06:39:38.378Z,3.30
2019-03-25T06:42:06.418Z,3.40
2019-03-25T06:44:34.264Z,3.60
2019-03-25T06:47:02.014Z,3.80
2019-03-25T06:49:29.895Z,3.90
2019-03-25T06:51:58.927Z,3.80
2019-03-25T06:54:27.625Z,3.80
2019-03-25T06:56:55.543Z,3.80
2019-03-25T06:59:23.565Z,4.00
2019-03-25T07:01:51.646Z,3.90
2019-03-25T07:04:21.285Z,4.10
2019-03-25T07:06:49.476Z,4.20
2019-03-25T07:09:18.739Z,4.20
2019-03-25T07:11:47.204Z,4.30
2019-03-25T07:14:14.935Z,4.30
2019-03-25T07:16:42.643Z,4.50
2019-03-25T07:19:10.726Z,4.70
2019-03-25T07:21:40.035Z,4.80
2019-03-25T07:24:07.667Z,4.90
2019-03-25T07:26:37.010Z,5.10
2019-03-25T07:29:04.827Z,5.10
2019-03-25T07:31:32.691Z,5.10
2019-03-25T07:34:00.727Z,5.30
2019-03-25T07:36:30.569Z,5.30
2019-03-25T07:39:00.245Z,5.20
2019-03-25T07:41:28.225Z,5.20
2019-03-25T07:43:56.607Z,5.30
2019-03-25T07:46:25.995Z,5.30
2019-03-25T07:48:55.225Z,5.20
2019-03-25T07:51:23.416Z,5.40
2019-03-25T07:53:51.174Z,5.70
2019-03-25T07:56:19.553Z,5.80
2019-03-25T07:58:47.696Z,5.90
2019-03-25T08:01:15.658Z,5.90
2019-03-25T08:03:44.279Z,6.00
2019-03-25T08:06:12.460Z,5.90
2019-03-25T08:08:40.584Z,5.90
2019-03-25T08:11:08.514Z,6.00
2019-03-25T08:13:36.356Z,6.00
2019-03-25T08:16:04.855Z,5.90
2019-03-25T08:18:32.900Z,5.80
2019-03-25T08:23:28.869Z,6.00
2019-03-25T08:25:57.045Z,6.10
2019-03-25T08:28:24.859Z,6.10
2019-03-25T08:30:53.076Z,6.20
2019-03-25T08:33:24.607Z,6.30
2019-03-25T08:35:52.950Z,6.40
2019-03-25T08:38:20.580Z,6.70
2019-03-25T08:40:48.582Z,7.30
2019-03-25T08:43:16.289Z,7.40
2019-03-25T08:45:44.181Z,7.70
2019-03-25T08:48:12.339Z,7.50
2019-03-25T08:50:40.530Z,7.20
2019-03-25T08:53:08.317Z,7.30
2019-03-25T08:55:36.378Z,7.00
2019-03-25T08:58:11.972Z,7.10
2019-03-25T09:00:34.481Z,7.20
2019-03-25T09:03:02.459Z,7.40
2019-03-25T09:05:32.052Z,7.60
2019-03-25T09:08:00.662Z,7.90
2019-03-25T09:10:28.576Z,8.30
2019-03-25T09:12:56.195Z,8.20
2019-03-25T09:15:24.219Z,8.70
2019-03-25T09:17:52.211Z,8.90
2019-03-25T09:20:20.255Z,8.90
2019-03-25T09:22:48.357Z,8.70
2019-03-25T09:25:16.317Z,9.00
2019-03-25T09:27:44.286Z,9.10
2019-03-25T09:30:14.280Z,9.70
2019-03-25T09:32:42.314Z,10.50
2019-03-25T09:35:11.596Z,10.10
2019-03-25T09:37:39.534Z,10.30
2019-03-25T09:40:08.475Z,10.20
2019-03-25T09:42:36.491Z,10.60
2019-03-25T09:45:04.955Z,10.90
2019-03-25T09:47:33.140Z,11.60
2019-03-25T09:50:01.020Z,11.70
2019-03-25T09:52:38.090Z,11.50
2019-03-25T09:54:58.877Z,12.20
2019-03-25T09:57:27.059Z,11.70
2019-03-25T10:00:07.437Z,10.60
2019-03-25T10:02:48.335Z,10.00
2019-03-25T10:05:28.293Z,10.00
2019-03-25T10:08:08.645Z,11.40
2019-03-25T10:10:48.745Z,12.10
2019-03-25T10:13:29.772Z,12.60
2019-03-25T10:16:09.685Z,12.50
2019-03-25T10:18:50.093Z,13.10
2019-03-25T10:21:30.107Z,14.00
2019-03-25T10:24:09.778Z,15.20
2019-03-25T10:26:49.685Z,15.40
2019-03-25T10:29:29.858Z,15.60
2019-03-25T10:32:10.931Z,15.90
2019-03-25T10:34:50.847Z,15.40
2019-03-25T10:37:30.808Z,14.80
2019-03-25T10:40:10.829Z,14.00
2019-03-25T10:42:50.861Z,14.10
2019-03-25T10:45:30.470Z,14.30
2019-03-25T10:48:10.644Z,14.40
2019-03-25T10:50:50.168Z,13.80
2019-03-25T10:53:30.342Z,13.60
2019-03-25T10:56:10.565Z,13.20
2019-03-25T10:58:57.883Z,12.50
2019-03-25T11:01:32.411Z,12.20
2019-03-25T11:04:12.460Z,12.30
2019-03-25T11:06:52.644Z,13.40
2019-03-25T11:09:32.434Z,14.20
2019-03-25T11:12:12.387Z,13.90
2019-03-25T11:14:52.508Z,13.50
2019-03-25T11:17:32.841Z,14.80
2019-03-25T11:20:12.628Z,15.50
2019-03-25T11:22:52.976Z,16.70
2019-03-25T11:25:33.156Z,16.20
2019-03-25T11:28:13.138Z,14.80
2019-03-25T11:30:53.135Z,13.90
2019-03-25T11:33:33.235Z,14.00
2019-03-25T11:36:13.517Z,14.80
2019-03-25T11:38:53.201Z,15.20
2019-03-25T11:41:33.879Z,14.30
2019-03-25T11:44:13.981Z,13.60
2019-03-25T11:46:53.930Z,13.90
2019-03-25T11:49:34.002Z,13.40
2019-03-25T11:52:09.191Z,13.00
2019-03-25T11:54:58.314Z,12.60
2019-03-25T11:57:38.266Z,12.20
2019-03-25T12:00:18.494Z,12.30
2019-03-25T12:02:58.156Z,12.20
2019-03-25T12:05:38.367Z,12.00
2019-03-25T12:08:18.135Z,11.70
2019-03-25T12:10:58.147Z,11.70
2019-03-25T12:13:37.839Z,11.70
2019-03-25T12:16:18.159Z,11.70
2019-03-25T12:18:57.790Z,11.40
2019-03-25T12:21:37.848Z,10.80
2019-03-25T12:24:18.081Z,10.30
2019-03-25T12:26:59.035Z,10.90
2019-03-25T12:29:38.651Z,12.40
2019-03-25T12:32:18.793Z,14.10
2019-03-25T12:34:59.087Z,14.10
2019-03-25T12:37:39.024Z,13.70
2019-03-25T12:40:19.290Z,13.10
2019-03-25T12:42:58.903Z,13.00
2019-03-25T12:45:38.907Z,12.90
2019-03-25T12:48:19.276Z,12.30
2019-03-25T12:51:00.022Z,11.70
2019-03-25T12:53:40.599Z,10.80
2019-03-25T12:56:20.681Z,9.70
2019-03-25T12:59:00.761Z,9.40
2019-03-25T13:01:52.128Z,11.00
2019-03-25T13:04:22.675Z,13.00
2019-03-25T13:07:02.851Z,14.30
2019-03-25T13:09:42.921Z,15.30
2019-03-25T13:12:23.306Z,16.00
2019-03-25T13:15:02.997Z,16.40
2019-03-25T13:17:44.318Z,16.90
2019-03-25T13:20:12.796Z,17.00
2019-03-25T13:22:41.078Z,15.60
2019-03-25T13:25:21.350Z,16.20
2019-03-25T13:28:01.145Z,16.90
2019-03-25T13:30:39.644Z,16.60
2019-03-25T13:33:29.331Z,15.00
2019-03-25T13:36:28.007Z,13.90
2019-03-25T13:39:07.508Z,13.00
2019-03-25T13:41:48.398Z,12.30
2019-03-25T13:44:28.415Z,10.60
2019-03-25T13:47:08.415Z,9.10
2019-03-25T13:49:49.275Z,8.70
2019-03-25T13:52:30.375Z,8.30
2019-03-25T13:55:10.845Z,8.20
2019-03-25T13:57:50.503Z,8.20
2019-03-25T14:00:30.509Z,8.30
2019-03-25T14:03:09.933Z,8.90
2019-03-25T14:05:50.286Z,10.20
2019-03-25T14:08:30.096Z,11.60
2019-03-25T14:11:09.841Z,12.40
2019-03-25T14:13:50.133Z,12.10
2019-03-25T14:16:30.175Z,11.40
2019-03-25T14:19:10.629Z,11.00
2019-03-25T14:21:50.403Z,10.50
2019-03-25T14:24:30.143Z,10.20
2019-03-25T14:27:10.507Z,9.90
2019-03-25T14:29:50.695Z,9.80
2019-03-25T14:32:30.867Z,9.70
2019-03-25T14:35:10.752Z,9.80
2019-03-25T14:37:50.653Z,10.00
2019-03-25T14:40:30.613Z,10.70
2019-03-25T14:43:10.816Z,12.40
2019-03-25T14:45:50.668Z,13.30
2019-03-25T14:48:30.788Z,14.20
2019-03-25T14:51:11.230Z,14.80
2019-03-25T14:53:51.079Z,14.60
2019-03-25T14:56:31.113Z,14.30
2019-03-25T14:59:11.173Z,14.60
2019-03-25T15:01:51.162Z,15.30
2019-03-25T15:04:31.192Z,16.00
2019-03-25T15:07:11.244Z,16.00
2019-03-25T15:09:51.311Z,15.20
2019-03-25T15:12:31.235Z,14.90
2019-03-25T15:15:11.604Z,14.40
2019-03-25T15:17:51.244Z,13.20
2019-03-25T15:23:11.251Z,11.80
2019-03-25T15:25:51.585Z,11.90
2019-03-25T15:28:31.284Z,11.50
2019-03-25T15:31:10.896Z,11.40
2019-03-25T15:33:50.830Z,11.00
2019-03-25T15:36:31.159Z,10.90
2019-03-25T15:39:11.625Z,10.70
2019-03-25T15:41:51.063Z,10.40
2019-03-25T15:44:31.245Z,10.30
2019-03-25T15:47:11.377Z,10.20
2019-03-25T15:49:51.434Z,10.20
2019-03-25T15:52:31.258Z,10.30
2019-03-25T15:55:11.561Z,10.50
2019-03-25T15:57:52.618Z,10.90
2019-03-25T16:00:32.862Z,11.70
2019-03-25T16:03:12.884Z,12.30
2019-03-25T16:05:52.999Z,12.90
2019-03-25T16:08:33.170Z,12.80
2019-03-25T16:11:13.464Z,12.60
2019-03-25T16:16:33.382Z,11.90
2019-03-25T16:19:13.882Z,11.10
2019-03-25T16:24:42.985Z,10.30
2019-03-25T16:27:23.099Z,10.00
2019-03-25T16:30:03.150Z,9.50
2019-03-25T16:32:43.216Z,9.30
2019-03-25T16:35:23.184Z,9.00
2019-03-25T16:38:03.214Z,9.00
2019-03-25T16:40:43.032Z,9.00
2019-03-25T16:43:22.997Z,8.80
2019-03-25T16:46:03.341Z,8.80
2019-03-25T16:48:43.777Z,9.00
2019-03-25T16:51:23.952Z,9.40
2019-03-25T16:54:03.567Z,9.80
2019-03-25T16:56:43.065Z,10.00
2019-03-25T16:59:22.995Z,10.10
2019-03-25T17:02:03.299Z,9.90
2019-03-25T17:04:43.388Z,9.70
2019-03-25T17:07:23.391Z,9.40
2019-03-25T17:10:03.420Z,9.10
2019-03-25T17:12:44.145Z,8.90
2019-03-25T17:15:23.748Z,8.80
2019-03-25T17:18:03.922Z,8.70
2019-03-25T17:20:43.767Z,8.40
2019-03-25T17:23:24.070Z,8.20
2019-03-25T17:26:03.718Z,8.00
2019-03-25T17:28:43.336Z,7.90
2019-03-25T17:31:24.148Z,7.90
2019-03-25T17:34:03.663Z,7.80
2019-03-25T17:36:44.508Z,7.60
2019-03-25T17:39:24.684Z,7.30
2019-03-25T17:42:05.166Z,7.20
2019-03-25T17:44:45.397Z,7.00
2019-03-25T17:49:59.667Z,6.60
2019-03-25T17:52:47.920Z,6.50
2019-03-25T17:55:28.098Z,6.40
2019-03-25T17:58:08.317Z,6.30
2019-03-25T18:03:34.718Z,6.20
2019-03-25T18:06:17.814Z,6.10
2019-03-25T18:08:59.766Z,6.10
2019-03-25T18:11:40.801Z,5.90
2019-03-25T18:14:08.674Z,5.90
2019-03-25T18:16:55.864Z,5.70
2019-03-25T18:19:35.900Z,5.70
2019-03-25T18:22:16.519Z,5.60
2019-03-25T18:24:56.072Z,5.50
2019-03-25T18:27:36.059Z,5.40
2019-03-25T18:30:16.032Z,5.30
2019-03-25T18:32:56.080Z,5.30
2019-03-25T18:35:36.138Z,5.30
2019-03-25T18:38:16.866Z,5.30
2019-03-25T18:43:46.523Z,5.40
2019-03-25T18:48:56.052Z,5.30
2019-03-25T18:51:42.935Z,5.20
2019-03-25T18:54:22.880Z,5.20
2019-03-25T18:57:02.648Z,5.10
2019-03-25T18:59:42.933Z,5.10
2019-03-25T19:02:22.717Z,5.00
2019-03-25T19:05:03.239Z,5.00
2019-03-25T19:07:43.741Z,4.90
2019-03-25T19:10:23.150Z,4.80
2019-03-25T19:13:04.754Z,4.70
2019-03-25T19:15:44.428Z,4.70
2019-03-25T19:18:24.463Z,4.50
2019-03-25T19:21:05.520Z,4.40
2019-03-25T19:23:45.263Z,4.40
2019-03-25T19:26:25.396Z,4.30
2019-03-25T19:29:05.759Z,4.20
2019-03-25T19:31:46.074Z,4.20
2019-03-25T19:34:25.806Z,4.10
2019-03-25T19:37:06.122Z,4.10
2019-03-25T19:39:47.073Z,4.00
2019-03-25T19:42:28.788Z,4.00
2019-03-25T19:44:56.733Z,3.90
2019-03-25T19:47:25.230Z,3.90
2019-03-25T19:49:53.663Z,3.90
2019-03-25T19:52:22.936Z,3.90
2019-03-25T19:54:54.706Z,3.80
2019-03-25T19:57:24.823Z,3.80
2019-03-25T19:59:52.307Z,3.80
2019-03-25T20:02:21.460Z,3.80
2019-03-25T20:04:50.472Z,3.90
2019-03-25T20:07:18.805Z,4.00
2019-03-25T20:09:48.506Z,4.10
2019-03-25T20:12:17.915Z,4.30
2019-03-25T20:14:46.092Z,4.30
2019-03-25T20:17:13.852Z,4.50
2019-03-25T20:19:42.940Z,4.60
2019-03-25T20:22:11.839Z,4.70
2019-03-25T20:24:40.798Z,4.80
2019-03-25T20:27:09.758Z,4.90
2019-03-25T20:29:38.638Z,5.00
2019-03-25T20:32:08.417Z,5.10
2019-03-25T20:34:40.756Z,5.10
2019-03-25T20:37:09.032Z,5.20
2019-03-25T20:39:37.794Z,5.20
2019-03-25T20:42:06.553Z,5.20
2019-03-25T20:44:35.980Z,5.30
2019-03-25T20:47:04.212Z,5.30
2019-03-25T20:52:02.618Z,5.40
2019-03-25T20:54:30.655Z,5.40
2019-03-25T20:56:59.314Z,5.40
2019-03-25T20:59:27.821Z,5.40
2019-03-25T21:01:56.020Z,5.40
2019-03-25T21:04:23.985Z,5.40
2019-03-25T21:06:54.539Z,5.40
2019-03-25T21:09:22.686Z,5.40
2019-03-25T21:11:51.594Z,5.30
2019-03-25T21:14:21.166Z,5.20
2019-03-25T21:16:49.813Z,5.00
2019-03-25T21:19:18.206Z,5.00
2019-03-25T21:21:46.422Z,4.80
2019-03-25T21:24:14.847Z,4.80
2019-03-25T21:26:42.863Z,4.80
2019-03-25T21:29:11.793Z,4.80
2019-03-25T21:31:41.268Z,4.90
2019-03-25T21:34:09.968Z,4.90
2019-03-25T21:36:41.715Z,4.90
2019-03-25T21:39:09.939Z,4.90
2019-03-25T21:41:39.601Z,4.80
2019-03-25T21:44:10.347Z,4.80
2019-03-25T21:46:39.789Z,4.80
2019-03-25T21:49:08.640Z,4.70
2019-03-25T21:51:38.750Z,4.70
2019-03-25T21:54:07.055Z,4.60
2019-03-25T21:56:35.268Z,4.50
2019-03-25T21:59:04.051Z,4.50
2019-03-25T22:01:32.717Z,4.40
2019-03-25T22:04:03.336Z,4.40
2019-03-25T22:06:34.285Z,4.40
2019-03-25T22:09:06.504Z,4.40
2019-03-25T22:11:35.132Z,4.30
2019-03-25T22:14:03.266Z,4.20
2019-03-25T22:16:32.456Z,4.20
2019-03-25T22:18:59.938Z,4.30
2019-03-25T22:21:29.117Z,4.30
2019-03-25T22:23:57.158Z,4.30
2019-03-25T22:26:26.509Z,4.30
2019-03-25T22:28:54.694Z,4.30
2019-03-25T22:31:22.442Z,4.30
2019-03-25T22:33:50.438Z,4.30
2019-03-25T22:36:18.524Z,4.30
2019-03-25T22:38:46.548Z,4.30
2019-03-25T22:41:14.570Z,4.20
2019-03-25T22:43:42.684Z,4.20
2019-03-25T22:46:13.741Z,4.20
2019-03-25T22:48:43.590Z,4.30
2019-03-25T22:51:11.753Z,4.30
2019-03-25T22:53:39.864Z,4.40
2019-03-25T22:56:09.819Z,4.50
2019-03-25T22:58:37.608Z,4.60
2019-03-25T23:01:05.838Z,4.70
2019-03-25T23:03:39.525Z,4.70
2019-03-25T23:06:04.428Z,4.80
2019-03-25T23:08:34.476Z,4.80
2019-03-25T23:11:02.678Z,4.90
2019-03-25T23:13:30.541Z,4.90
2019-03-25T23:15:58.783Z,4.90
2019-03-25T23:18:26.494Z,5.00
2019-03-25T23:21:01.503Z,5.10
2019-03-25T23:23:29.455Z,5.10
2019-03-25T23:25:57.878Z,5.10
2019-03-25T23:28:25.603Z,5.10
2019-03-25T23:30:54.487Z,5.20
2019-03-25T23:33:22.802Z,5.20
2019-03-25T23:35:50.669Z,5.20
2019-03-25T23:38:18.623Z,5.20
2019-03-25T23:40:46.419Z,5.20
2019-03-25T23:43:14.442Z,5.10
2019-03-25T23:45:42.603Z,5.20
2019-03-25T23:48:10.760Z,5.20
2019-03-25T23:50:39.671Z,5.10
2019-03-25T23:53:09.102Z,5.00
2019-03-25T23:55:37.554Z,5.00
2019-03-25T23:58:05.413Z,4.80
